createdAt,value
2022-12-27T00:01:09.964Z,83.40
2022-12-27T00:02:30.710Z,83.50
2022-12-27T00:03:53.060Z,83.30
2022-12-27T00:05:13.599Z,83.70
2022-12-27T00:06:33.909Z,83.80
2022-12-27T00:07:55.476Z,83.80
2022-12-27T00:09:16.228Z,83.60
2022-12-27T00:10:37.394Z,83.30
2022-12-27T00:11:59.995Z,83.10
2022-12-27T00:13:20.653Z,83.00
2022-12-27T00:14:41.320Z,82.90
2022-12-27T00:16:05.633Z,83.20
2022-12-27T00:17:26.432Z,83.30
2022-12-27T00:18:47.732Z,83.50
2022-12-27T00:20:11.837Z,83.20
2022-12-27T00:21:32.696Z,83.00
2022-12-27T00:22:53.235Z,82.80
2022-12-27T00:24:13.802Z,82.80
2022-12-27T00:25:34.589Z,82.90
2022-12-27T00:26:55.017Z,83.40
2022-12-27T00:28:15.672Z,83.30
2022-12-27T00:29:35.997Z,83.10
2022-12-27T00:30:56.917Z,82.80
2022-12-27T00:32:17.341Z,82.90
2022-12-27T00:33:39.539Z,82.90
2022-12-27T00:35:00.080Z,83.20
2022-12-27T00:36:23.595Z,83.10
2022-12-27T00:37:44.045Z,82.90
2022-12-27T00:39:04.872Z,82.90
2022-12-27T00:40:25.342Z,82.90
2022-12-27T00:41:46.025Z,82.90
2022-12-27T00:43:06.760Z,82.80
2022-12-27T00:44:27.544Z,82.60
2022-12-27T00:45:48.334Z,82.60
2022-12-27T00:47:09.108Z,82.50
2022-12-27T00:48:29.826Z,82.80
2022-12-27T00:49:50.158Z,82.80
2022-12-27T00:51:13.081Z,83.30
2022-12-27T00:52:35.042Z,83.40
2022-12-27T00:53:55.800Z,83.50
2022-12-27T00:55:16.507Z,83.60
2022-12-27T00:56:36.756Z,83.90
2022-12-27T00:57:57.372Z,83.90
2022-12-27T00:59:17.838Z,84.00
2022-12-27T01:00:38.070Z,84.30
2022-12-27T01:01:58.802Z,84.30
2022-12-27T01:03:20.081Z,84.40
2022-12-27T01:04:41.091Z,84.90
2022-12-27T01:06:04.572Z,85.80
2022-12-27T01:07:25.079Z,86.50
2022-12-27T01:08:48.890Z,86.00
2022-12-27T01:10:09.598Z,86.80
2022-12-27T01:11:30.053Z,86.70
2022-12-27T01:12:50.680Z,86.70
2022-12-27T01:14:11.647Z,87.20
2022-12-27T01:15:31.929Z,86.70
2022-12-27T01:16:53.149Z,86.90
2022-12-27T01:18:13.761Z,87.00
2022-12-27T01:19:35.532Z,87.10
2022-12-27T01:20:56.683Z,86.30
2022-12-27T01:22:17.274Z,86.00
2022-12-27T01:23:38.490Z,86.80
2022-12-27T01:25:00.162Z,85.80
2022-12-27T01:26:21.472Z,86.50
2022-12-27T01:27:42.048Z,86.60
2022-12-27T01:29:02.665Z,85.80
2022-12-27T01:30:23.197Z,85.80
2022-12-27T01:31:43.741Z,85.80
2022-12-27T01:33:04.551Z,86.20
2022-12-27T01:34:25.064Z,86.80
2022-12-27T01:35:45.885Z,86.60
2022-12-27T01:37:06.503Z,86.50
2022-12-27T01:38:27.003Z,86.80
2022-12-27T01:39:47.534Z,87.00
2022-12-27T01:41:13.089Z,87.20
2022-12-27T01:42:33.754Z,87.30
2022-12-27T01:43:54.479Z,87.30
2022-12-27T01:45:15.679Z,86.80
2022-12-27T01:46:36.184Z,86.30
2022-12-27T01:47:59.956Z,86.80
2022-12-27T01:49:20.333Z,87.20
2022-12-27T01:50:42.851Z,87.30
2022-12-27T01:52:04.856Z,87.40
2022-12-27T01:53:28.196Z,87.60
2022-12-27T01:54:49.025Z,87.90
2022-12-27T01:56:14.473Z,87.60
2022-12-27T01:57:35.109Z,87.60
2022-12-27T01:58:58.598Z,87.00
2022-12-27T02:00:19.329Z,87.40
2022-12-27T02:01:42.964Z,88.10
2022-12-27T02:03:04.815Z,87.40
2022-12-27T02:04:29.005Z,87.40
2022-12-27T02:05:49.676Z,88.10
2022-12-27T02:07:10.161Z,87.90
2022-12-27T02:08:37.136Z,88.00
2022-12-27T02:09:59.509Z,88.10
2022-12-27T02:11:24.127Z,87.70
2022-12-27T02:12:44.856Z,88.00
2022-12-27T02:14:05.719Z,87.50
2022-12-27T02:15:26.132Z,88.10
2022-12-27T02:16:46.587Z,87.70
2022-12-27T02:18:07.046Z,88.50
2022-12-27T02:19:33.721Z,88.20
2022-12-27T02:21:11.622Z,88.00
2022-12-27T02:23:13.427Z,87.70
2022-12-27T02:24:59.342Z,87.10
2022-12-27T02:26:51.301Z,86.30
2022-12-27T02:28:24.223Z,85.70
2022-12-27T02:29:54.022Z,85.10
2022-12-27T02:31:18.925Z,84.50
2022-12-27T02:32:45.118Z,84.10
2022-12-27T02:34:10.372Z,84.10
2022-12-27T02:35:36.069Z,84.00
2022-12-27T02:36:59.447Z,83.20
2022-12-27T02:38:23.288Z,82.90
2022-12-27T02:39:46.229Z,82.60
2022-12-27T02:41:08.714Z,82.90
2022-12-27T02:42:29.316Z,82.80
2022-12-27T02:43:49.606Z,82.70
2022-12-27T02:45:17.901Z,81.70
2022-12-27T02:46:38.842Z,81.80
2022-12-27T02:47:59.743Z,81.70
2022-12-27T02:49:24.325Z,81.30
2022-12-27T02:50:50.669Z,80.80
2022-12-27T02:52:17.603Z,80.80
2022-12-27T02:53:49.200Z,81.00
2022-12-27T02:55:25.240Z,80.20
2022-12-27T02:56:52.264Z,79.90
2022-12-27T02:58:24.713Z,79.90
2022-12-27T02:59:58.930Z,80.10
2022-12-27T03:01:28.216Z,79.90
2022-12-27T03:02:59.283Z,79.50
2022-12-27T03:04:31.623Z,78.90
2022-12-27T03:06:04.986Z,78.90
2022-12-27T03:07:31.203Z,79.20
2022-12-27T03:08:56.337Z,78.90
2022-12-27T03:10:26.208Z,78.90
2022-12-27T03:11:48.515Z,79.00
2022-12-27T03:13:18.437Z,79.00
2022-12-27T03:14:41.529Z,79.60
2022-12-27T03:16:09.726Z,78.90
2022-12-27T03:17:35.340Z,78.40
2022-12-27T03:19:01.631Z,79.00
2022-12-27T03:20:22.235Z,78.50
2022-12-27T03:21:45.663Z,78.70
2022-12-27T03:23:08.239Z,79.20
2022-12-27T03:24:31.348Z,79.10
2022-12-27T03:25:52.419Z,79.40
2022-12-27T03:27:15.811Z,78.80
2022-12-27T03:28:36.673Z,79.00
2022-12-27T03:29:59.007Z,79.10
2022-12-27T03:31:22.236Z,79.20
2022-12-27T03:32:48.257Z,79.20
2022-12-27T03:34:10.267Z,79.20
2022-12-27T03:35:32.009Z,79.20
2022-12-27T03:36:53.941Z,78.90
2022-12-27T03:38:14.498Z,79.10
2022-12-27T03:39:37.064Z,79.40
2022-12-27T03:41:00.741Z,78.60
2022-12-27T03:42:24.717Z,78.80
2022-12-27T03:43:44.834Z,78.30
2022-12-27T03:45:06.396Z,78.60
2022-12-27T03:46:28.416Z,78.90
2022-12-27T03:47:55.417Z,78.00
2022-12-27T03:49:21.054Z,78.10
2022-12-27T03:50:46.017Z,78.30
2022-12-27T03:52:08.668Z,77.80
2022-12-27T03:53:32.227Z,78.20
2022-12-27T03:54:53.209Z,78.10
2022-12-27T03:56:13.821Z,78.10
2022-12-27T03:57:34.455Z,77.50
2022-12-27T03:58:55.997Z,77.40
2022-12-27T04:00:17.059Z,77.80
2022-12-27T04:01:38.336Z,77.80
2022-12-27T04:03:00.376Z,78.10
2022-12-27T04:04:21.020Z,78.00
2022-12-27T04:05:41.669Z,78.30
2022-12-27T04:07:02.322Z,78.10
2022-12-27T04:08:22.969Z,77.80
2022-12-27T04:09:43.755Z,78.10
2022-12-27T04:11:04.084Z,78.00
2022-12-27T04:12:24.623Z,78.00
2022-12-27T04:13:44.867Z,78.00
2022-12-27T04:15:06.170Z,77.70
2022-12-27T04:16:26.884Z,77.80
2022-12-27T04:17:47.626Z,77.70
2022-12-27T04:19:09.517Z,78.10
2022-12-27T04:20:29.587Z,77.70
2022-12-27T04:21:50.264Z,77.70
2022-12-27T04:23:10.644Z,77.80
2022-12-27T04:24:31.261Z,78.00
2022-12-27T04:25:51.875Z,78.10
2022-12-27T04:27:12.858Z,77.60
2022-12-27T04:28:33.285Z,77.80
2022-12-27T04:29:54.098Z,78.00
2022-12-27T04:31:15.057Z,77.70
2022-12-27T04:32:35.546Z,77.80
2022-12-27T04:33:56.249Z,77.60
2022-12-27T04:35:18.264Z,77.50
2022-12-27T04:36:38.859Z,77.80
2022-12-27T04:37:59.475Z,77.80
2022-12-27T04:39:20.237Z,77.60
2022-12-27T04:40:40.817Z,77.70
2022-12-27T04:42:01.335Z,78.10
2022-12-27T04:43:21.958Z,78.30
2022-12-27T04:44:42.515Z,78.00
2022-12-27T04:46:03.084Z,78.00
2022-12-27T04:47:24.026Z,78.00
2022-12-27T04:48:44.734Z,78.40
2022-12-27T04:50:12.562Z,78.40
2022-12-27T04:51:34.658Z,78.30
2022-12-27T04:52:55.391Z,78.60
2022-12-27T04:54:18.704Z,78.70
2022-12-27T04:55:38.774Z,78.70
2022-12-27T04:56:59.188Z,78.60
2022-12-27T04:58:20.003Z,78.40
2022-12-27T04:59:40.279Z,78.40
2022-12-27T05:01:06.657Z,78.80
2022-12-27T05:02:30.082Z,78.80
2022-12-27T05:03:51.936Z,78.50
2022-12-27T05:05:12.833Z,78.70
2022-12-27T05:06:34.802Z,78.70
2022-12-27T05:07:56.401Z,78.60
2022-12-27T05:09:22.956Z,78.40
2022-12-27T05:10:43.515Z,78.30
2022-12-27T05:12:03.797Z,78.50
2022-12-27T05:13:24.472Z,78.80
2022-12-27T05:14:45.187Z,78.40
2022-12-27T05:16:06.741Z,78.80
2022-12-27T05:17:27.025Z,78.90
2022-12-27T05:18:47.428Z,78.90
2022-12-27T05:20:08.953Z,79.10
2022-12-27T05:21:29.321Z,78.70
2022-12-27T05:22:51.373Z,78.90
2022-12-27T05:24:12.182Z,78.90
2022-12-27T05:25:33.326Z,78.60
2022-12-27T05:26:56.115Z,79.00
2022-12-27T05:28:16.649Z,79.00
2022-12-27T05:29:37.092Z,78.90
2022-12-27T05:31:01.039Z,79.10
2022-12-27T05:32:21.306Z,79.10
2022-12-27T05:33:41.565Z,79.30
2022-12-27T05:35:02.262Z,79.20
2022-12-27T05:36:23.136Z,79.30
2022-12-27T05:37:43.600Z,79.10
2022-12-27T05:39:05.652Z,79.20
2022-12-27T05:40:26.912Z,79.20
2022-12-27T05:41:47.601Z,79.50
2022-12-27T05:43:07.843Z,79.50
2022-12-27T05:44:28.339Z,79.30
2022-12-27T05:45:49.035Z,79.10
2022-12-27T05:47:09.595Z,79.10
2022-12-27T05:48:30.696Z,79.10
2022-12-27T05:49:51.365Z,79.00
2022-12-27T05:51:13.823Z,79.20
2022-12-27T05:52:40.649Z,79.00
2022-12-27T05:54:01.899Z,79.10
2022-12-27T05:55:24.005Z,79.60
2022-12-27T05:56:44.671Z,80.00
2022-12-27T05:58:05.248Z,79.80
2022-12-27T05:59:25.846Z,79.80
2022-12-27T06:00:46.178Z,79.70
2022-12-27T06:02:06.848Z,79.40
2022-12-27T06:03:27.632Z,79.60
2022-12-27T06:04:48.183Z,79.70
2022-12-27T06:06:09.390Z,79.70
2022-12-27T06:07:29.644Z,79.90
2022-12-27T06:08:50.294Z,80.00
2022-12-27T06:10:11.374Z,79.80
2022-12-27T06:11:33.520Z,80.00
2022-12-27T06:12:54.241Z,80.30
2022-12-27T06:14:14.590Z,80.60
2022-12-27T06:15:34.886Z,80.70
2022-12-27T06:16:55.669Z,81.10
2022-12-27T06:18:16.314Z,81.40
2022-12-27T06:19:36.920Z,81.40
2022-12-27T06:21:01.982Z,81.10
2022-12-27T06:22:22.233Z,81.40
2022-12-27T06:23:43.791Z,81.10
2022-12-27T06:25:06.398Z,81.40
2022-12-27T06:26:29.773Z,81.20
2022-12-27T06:27:51.367Z,81.00
2022-12-27T06:29:12.357Z,81.20
2022-12-27T06:30:36.090Z,81.40
2022-12-27T06:31:57.067Z,81.40
2022-12-27T06:33:17.237Z,81.40
2022-12-27T06:34:37.811Z,81.50
2022-12-27T06:35:59.798Z,81.40
2022-12-27T06:37:20.462Z,81.30
2022-12-27T06:38:41.215Z,81.50
2022-12-27T06:40:01.632Z,81.70
2022-12-27T06:41:22.248Z,81.60
2022-12-27T06:42:42.809Z,81.50
2022-12-27T06:44:05.057Z,81.70
2022-12-27T06:45:25.431Z,81.50
2022-12-27T06:46:46.056Z,81.40
2022-12-27T06:48:06.613Z,81.30
2022-12-27T06:49:27.059Z,81.40
2022-12-27T06:50:47.478Z,81.30
2022-12-27T06:52:08.117Z,81.40
2022-12-27T06:53:28.812Z,81.40
2022-12-27T06:54:49.605Z,81.60
2022-12-27T06:56:11.586Z,81.70
2022-12-27T06:57:32.181Z,81.80
2022-12-27T06:58:52.555Z,81.70
2022-12-27T07:00:15.514Z,81.80
2022-12-27T07:01:35.959Z,81.70
2022-12-27T07:02:56.553Z,81.70
2022-12-27T07:04:16.986Z,81.80
2022-12-27T07:05:38.313Z,81.70
2022-12-27T07:06:58.905Z,81.70
2022-12-27T07:08:19.605Z,82.30
2022-12-27T07:09:40.075Z,82.50
2022-12-27T07:11:00.870Z,82.50
2022-12-27T07:12:21.047Z,82.70
2022-12-27T07:13:43.758Z,83.10
2022-12-27T07:15:06.599Z,83.30
2022-12-27T07:16:29.583Z,83.50
2022-12-27T07:17:49.914Z,83.50
2022-12-27T07:19:10.562Z,83.70
2022-12-27T07:20:30.853Z,83.70
2022-12-27T07:21:51.513Z,84.10
2022-12-27T07:23:17.304Z,84.10
2022-12-27T07:24:40.009Z,84.30
2022-12-27T07:26:02.544Z,84.30
2022-12-27T07:27:23.112Z,84.20
2022-12-27T07:28:43.906Z,84.30
2022-12-27T07:30:05.509Z,84.30
2022-12-27T07:31:29.856Z,84.40
2022-12-27T07:32:50.197Z,84.40
2022-12-27T07:34:10.482Z,84.60
2022-12-27T07:35:30.681Z,84.60
2022-12-27T07:36:50.962Z,84.80
2022-12-27T07:38:11.573Z,84.90
2022-12-27T07:39:32.238Z,85.00
2022-12-27T07:40:52.875Z,84.90
2022-12-27T07:42:13.605Z,84.90
2022-12-27T07:43:35.236Z,85.00
2022-12-27T07:44:56.097Z,84.90
2022-12-27T07:46:18.523Z,84.80
2022-12-27T07:47:40.694Z,84.70
2022-12-27T07:49:01.197Z,84.80
2022-12-27T07:50:21.610Z,84.80
2022-12-27T07:51:41.978Z,84.70
2022-12-27T07:53:02.737Z,84.60
2022-12-27T07:54:23.215Z,84.80
2022-12-27T07:55:43.700Z,84.60
2022-12-27T07:57:04.593Z,84.60
2022-12-27T07:58:25.200Z,84.50
2022-12-27T07:59:45.663Z,84.50
2022-12-27T08:01:07.224Z,84.40
2022-12-27T08:02:27.587Z,84.60
2022-12-27T08:03:49.444Z,84.60
2022-12-27T08:05:10.239Z,84.50
2022-12-27T08:06:31.855Z,84.60
2022-12-27T08:07:52.191Z,84.40
2022-12-27T08:09:13.537Z,84.50
2022-12-27T08:10:34.067Z,84.50
2022-12-27T08:11:54.392Z,84.40
2022-12-27T08:13:15.008Z,84.70
2022-12-27T08:14:35.730Z,84.90
2022-12-27T08:15:56.283Z,85.20
2022-12-27T08:17:19.317Z,85.30
2022-12-27T08:18:39.572Z,85.30
2022-12-27T08:20:01.764Z,85.20
2022-12-27T08:21:22.296Z,85.30
2022-12-27T08:22:42.948Z,85.40
2022-12-27T08:24:04.161Z,85.50
2022-12-27T08:25:24.933Z,85.60
2022-12-27T08:26:45.456Z,85.60
2022-12-27T08:28:07.675Z,85.70
2022-12-27T08:29:28.113Z,85.50
2022-12-27T08:30:48.917Z,85.40
2022-12-27T08:32:09.546Z,85.60
2022-12-27T08:33:30.250Z,85.60
2022-12-27T08:34:50.704Z,85.70
2022-12-27T08:36:45.197Z,85.90
2022-12-27T08:37:53.918Z,86.00
2022-12-27T08:39:14.469Z,85.90
2022-12-27T08:40:40.141Z,86.00
2022-12-27T08:42:00.981Z,86.10
2022-12-27T08:43:21.562Z,86.00
2022-12-27T08:44:41.895Z,86.00
2022-12-27T08:46:03.486Z,85.90
2022-12-27T08:47:23.881Z,86.20
2022-12-27T08:48:44.314Z,85.90
2022-12-27T08:50:05.756Z,85.60
2022-12-27T08:51:35.842Z,85.60
2022-12-27T08:53:04.228Z,85.60
2022-12-27T08:54:24.780Z,85.80
2022-12-27T08:55:45.460Z,86.00
2022-12-27T08:57:06.147Z,86.90
2022-12-27T08:58:26.966Z,87.30
2022-12-27T08:59:47.371Z,87.00
2022-12-27T09:01:09.133Z,86.60
2022-12-27T09:02:29.886Z,86.80
2022-12-27T09:03:50.217Z,86.90
2022-12-27T09:05:11.010Z,86.60
2022-12-27T09:06:32.856Z,86.70
2022-12-27T09:07:53.786Z,86.40
2022-12-27T09:09:13.895Z,86.70
2022-12-27T09:10:34.409Z,86.60
2022-12-27T09:11:55.026Z,86.20
2022-12-27T09:13:15.722Z,85.80
2022-12-27T09:14:36.965Z,85.70
2022-12-27T09:15:57.432Z,85.80
2022-12-27T09:17:18.527Z,85.70
2022-12-27T09:18:42.055Z,86.20
2022-12-27T09:20:03.209Z,86.10
2022-12-27T09:21:25.208Z,85.90
2022-12-27T09:22:47.155Z,86.40
2022-12-27T09:24:09.221Z,86.70
2022-12-27T09:25:29.694Z,86.50
2022-12-27T09:26:50.594Z,86.80
2022-12-27T09:28:11.179Z,86.50
2022-12-27T09:29:31.508Z,86.50
2022-12-27T09:30:52.173Z,86.40
2022-12-27T09:32:12.958Z,86.70
2022-12-27T09:33:34.100Z,86.50
2022-12-27T09:34:54.660Z,86.30
2022-12-27T09:36:16.651Z,86.20
2022-12-27T09:37:37.144Z,85.90
2022-12-27T09:38:59.402Z,86.20
2022-12-27T09:40:20.201Z,86.70
2022-12-27T09:43:38.239Z,86.80
2022-12-27T09:45:04.092Z,87.10
2022-12-27T09:46:27.805Z,86.90
2022-12-27T09:47:52.334Z,86.90
2022-12-27T09:49:14.187Z,86.20
2022-12-27T09:50:40.200Z,85.90
2022-12-27T09:52:03.636Z,85.90
2022-12-27T09:53:37.451Z,86.00
2022-12-27T09:55:05.403Z,86.20
2022-12-27T09:56:47.384Z,86.10
2022-12-27T09:58:25.583Z,86.20
2022-12-27T09:59:47.914Z,86.30
2022-12-27T10:01:20.331Z,86.40
2022-12-27T10:02:41.629Z,86.50
2022-12-27T10:04:03.910Z,86.60
2022-12-27T10:05:27.928Z,86.20
2022-12-27T10:07:11.223Z,86.20
2022-12-27T10:08:39.414Z,86.10
2022-12-27T10:10:06.032Z,86.40
2022-12-27T10:11:32.948Z,86.10
2022-12-27T10:13:16.873Z,86.00
2022-12-27T10:14:49.284Z,86.00
2022-12-27T10:16:18.255Z,85.50
2022-12-27T10:17:52.817Z,85.60
2022-12-27T10:19:21.426Z,85.90
2022-12-27T10:20:58.726Z,85.70
2022-12-27T10:22:23.235Z,85.40
2022-12-27T10:23:47.140Z,85.30
2022-12-27T10:25:14.428Z,84.70
2022-12-27T10:26:35.040Z,84.70
2022-12-27T10:27:59.364Z,84.80
2022-12-27T10:29:22.595Z,84.70
2022-12-27T10:30:44.184Z,84.90
2022-12-27T10:32:05.008Z,85.00
2022-12-27T10:33:27.865Z,85.10
2022-12-27T10:34:52.304Z,85.00
2022-12-27T10:36:15.322Z,85.10
2022-12-27T10:37:36.039Z,85.20
2022-12-27T10:38:56.853Z,85.00
2022-12-27T10:40:22.051Z,84.90
2022-12-27T10:41:48.556Z,84.60
2022-12-27T10:43:16.338Z,84.20
2022-12-27T10:44:37.087Z,84.20
2022-12-27T10:46:11.455Z,84.10
2022-12-27T10:47:32.197Z,84.20
2022-12-27T10:50:38.178Z,84.30
2022-12-27T10:52:06.962Z,84.30
2022-12-27T10:53:36.290Z,84.30
2022-12-27T10:54:57.640Z,84.20
2022-12-27T10:56:26.716Z,84.30
2022-12-27T10:57:47.340Z,84.40
2022-12-27T10:59:12.502Z,84.80
2022-12-27T11:00:33.228Z,85.00
2022-12-27T11:02:15.568Z,85.20
2022-12-27T11:03:36.378Z,85.20
2022-12-27T11:04:58.758Z,85.00
2022-12-27T11:06:22.487Z,84.90
2022-12-27T11:07:43.102Z,85.00
2022-12-27T11:09:26.644Z,84.50
2022-12-27T11:10:47.137Z,84.70
2022-12-27T11:12:17.970Z,84.10
2022-12-27T11:13:38.583Z,83.90
2022-12-27T11:15:01.259Z,84.10
2022-12-27T11:16:29.399Z,84.00
2022-12-27T11:17:52.037Z,84.00
2022-12-27T11:19:22.186Z,84.30
2022-12-27T11:20:47.254Z,84.00
2022-12-27T11:22:08.642Z,83.80
2022-12-27T11:23:33.589Z,83.80
2022-12-27T11:24:56.194Z,83.50
2022-12-27T11:26:22.434Z,83.80
2022-12-27T11:27:48.153Z,83.50
2022-12-27T11:29:15.975Z,83.60
2022-12-27T11:30:39.070Z,83.80
2022-12-27T11:32:05.682Z,84.10
2022-12-27T11:33:32.174Z,85.00
2022-12-27T11:34:54.178Z,84.60
2022-12-27T11:36:22.869Z,84.50
2022-12-27T11:37:43.464Z,84.50
2022-12-27T11:39:04.873Z,85.10
2022-12-27T11:40:27.736Z,84.90
2022-12-27T11:41:52.913Z,84.40
2022-12-27T11:43:16.870Z,84.50
2022-12-27T11:44:39.121Z,84.70
2022-12-27T11:46:02.475Z,84.70
2022-12-27T11:47:30.814Z,85.00
2022-12-27T11:48:56.273Z,84.80
2022-12-27T11:50:33.163Z,84.30
2022-12-27T11:52:32.991Z,84.10
2022-12-27T11:54:14.008Z,84.00
2022-12-27T11:55:46.990Z,84.30
2022-12-27T11:57:17.918Z,84.30
2022-12-27T11:59:08.162Z,84.00
2022-12-27T12:00:33.580Z,84.50
2022-12-27T12:02:31.123Z,84.80
2022-12-27T12:04:18.556Z,84.50
2022-12-27T12:05:50.765Z,84.50
2022-12-27T12:07:11.967Z,84.60
2022-12-27T12:08:54.128Z,84.40
2022-12-27T12:10:24.683Z,84.70
2022-12-27T12:12:05.544Z,84.10
2022-12-27T12:13:46.405Z,84.20
2022-12-27T12:15:38.833Z,84.20
2022-12-27T12:17:13.540Z,83.70
2022-12-27T12:18:54.637Z,84.10
2022-12-27T12:20:36.215Z,84.50
2022-12-27T12:22:10.985Z,84.20
2022-12-27T12:23:47.699Z,83.90
2022-12-27T12:25:29.302Z,83.40
2022-12-27T12:27:00.658Z,83.10
2022-12-27T12:28:58.133Z,83.70
2022-12-27T12:30:58.793Z,82.20
2022-12-27T12:32:41.107Z,81.60
2022-12-27T12:34:18.637Z,81.90
2022-12-27T12:35:52.848Z,81.50
2022-12-27T12:37:19.515Z,81.60
2022-12-27T12:38:42.813Z,81.10
2022-12-27T12:40:14.887Z,81.40
2022-12-27T12:41:46.446Z,81.40
2022-12-27T12:43:21.027Z,81.50
2022-12-27T12:45:02.081Z,81.40
2022-12-27T12:46:28.091Z,81.80
2022-12-27T12:48:04.592Z,81.50
2022-12-27T12:49:40.796Z,81.50
2022-12-27T12:51:24.279Z,81.50
2022-12-27T12:52:53.981Z,81.80
2022-12-27T12:54:29.402Z,82.00
2022-12-27T12:56:04.024Z,82.00
2022-12-27T12:57:35.633Z,81.90
2022-12-27T12:59:05.320Z,82.30
2022-12-27T13:00:33.865Z,82.90
2022-12-27T13:02:03.380Z,83.10
2022-12-27T13:03:53.397Z,82.90
2022-12-27T13:05:18.988Z,83.00
2022-12-27T13:06:56.728Z,83.30
2022-12-27T13:08:24.431Z,83.60
2022-12-27T13:09:59.390Z,83.80
2022-12-27T13:11:40.399Z,83.10
2022-12-27T13:13:05.643Z,83.70
2022-12-27T13:14:37.374Z,83.90
2022-12-27T13:16:11.638Z,84.00
2022-12-27T13:17:38.772Z,84.50
2022-12-27T13:19:11.450Z,84.10
2022-12-27T13:21:00.787Z,84.20
2022-12-27T13:22:28.636Z,84.50
2022-12-27T13:23:59.821Z,84.20
2022-12-27T13:25:28.372Z,83.70
2022-12-27T13:26:54.252Z,83.70
2022-12-27T13:28:25.483Z,84.00
2022-12-27T13:30:06.692Z,83.90
2022-12-27T13:31:39.876Z,83.90
2022-12-27T13:33:14.697Z,83.90
2022-12-27T13:34:44.426Z,83.80
2022-12-27T13:36:18.890Z,83.80
2022-12-27T13:37:50.746Z,83.50
2022-12-27T13:39:25.277Z,83.40
2022-12-27T13:41:16.817Z,83.40
2022-12-27T13:43:09.412Z,84.10
2022-12-27T13:44:36.585Z,84.00
2022-12-27T13:46:13.189Z,84.10
2022-12-27T13:47:47.793Z,84.50
2022-12-27T13:49:23.260Z,83.80
2022-12-27T13:51:06.763Z,83.90
2022-12-27T13:52:41.465Z,83.90
2022-12-27T13:54:29.686Z,83.90
2022-12-27T13:55:55.091Z,83.10
2022-12-27T13:57:31.115Z,82.80
2022-12-27T13:59:27.188Z,83.10
2022-12-27T14:00:52.615Z,83.50
2022-12-27T14:02:42.646Z,83.70
2022-12-27T14:04:38.242Z,83.50
2022-12-27T14:06:34.321Z,83.10
2022-12-27T14:08:04.907Z,83.30
2022-12-27T14:09:47.528Z,82.90
2022-12-27T14:11:15.182Z,83.20
2022-12-27T14:12:57.225Z,83.20
2022-12-27T14:14:19.057Z,83.10
2022-12-27T14:16:23.397Z,82.90
2022-12-27T14:17:49.041Z,83.50
2022-12-27T14:19:37.225Z,83.00
2022-12-27T14:21:19.777Z,83.30
2022-12-27T14:22:54.434Z,83.20
2022-12-27T14:24:55.089Z,84.00
2022-12-27T14:26:57.990Z,83.80
2022-12-27T14:28:26.583Z,83.60
2022-12-27T14:30:23.124Z,83.70
2022-12-27T14:32:02.771Z,83.90
2022-12-27T14:33:46.139Z,83.80
2022-12-27T14:35:29.236Z,84.10
2022-12-27T14:37:10.091Z,84.70
2022-12-27T14:39:14.415Z,85.00
2022-12-27T14:40:50.673Z,85.00
2022-12-27T14:42:37.757Z,84.70
2022-12-27T14:44:15.681Z,84.90
2022-12-27T14:46:05.261Z,84.40
2022-12-27T14:47:50.523Z,84.70
2022-12-27T14:49:41.660Z,84.90
2022-12-27T14:51:58.293Z,84.00
2022-12-27T14:53:43.791Z,84.10
2022-12-27T14:55:26.601Z,84.10
2022-12-27T14:56:55.535Z,84.50
2022-12-27T14:58:48.953Z,84.90
2022-12-27T15:00:15.719Z,84.70
2022-12-27T15:01:45.909Z,85.20
2022-12-27T15:03:16.684Z,84.90
2022-12-27T15:04:44.325Z,85.50
2022-12-27T15:06:11.619Z,85.90
2022-12-27T15:07:51.557Z,86.00
2022-12-27T15:09:17.548Z,85.90
2022-12-27T15:10:53.299Z,86.00
2022-12-27T15:12:23.707Z,85.40
2022-12-27T15:13:54.587Z,85.30
2022-12-27T15:15:23.614Z,85.20
2022-12-27T15:16:52.868Z,84.70
2022-12-27T15:18:35.136Z,84.90
2022-12-27T15:20:20.244Z,85.50
2022-12-27T15:21:50.194Z,85.60
2022-12-27T15:23:19.499Z,85.60
2022-12-27T15:24:48.242Z,85.30
2022-12-27T15:26:18.051Z,85.20
2022-12-27T15:27:43.262Z,85.20
2022-12-27T15:29:22.109Z,85.00
2022-12-27T15:30:50.131Z,84.90
2022-12-27T15:32:23.885Z,84.80
2022-12-27T15:33:49.960Z,84.50
2022-12-27T15:35:25.465Z,84.80
2022-12-27T15:36:47.798Z,84.60
2022-12-27T15:38:11.858Z,84.40
2022-12-27T15:39:50.879Z,84.60
2022-12-27T15:41:24.259Z,84.70
2022-12-27T15:42:53.949Z,84.70
2022-12-27T15:44:35.091Z,84.60
2022-12-27T15:46:08.771Z,84.40
2022-12-27T15:47:40.368Z,84.60
2022-12-27T15:49:17.599Z,84.40
2022-12-27T15:50:51.533Z,84.20
2022-12-27T15:52:16.444Z,84.70
2022-12-27T15:53:59.023Z,84.10
2022-12-27T15:55:29.971Z,84.30
2022-12-27T15:57:19.571Z,84.60
2022-12-27T15:58:42.431Z,84.20
2022-12-27T16:00:14.576Z,83.90
2022-12-27T16:01:35.618Z,83.80
2022-12-27T16:02:57.632Z,84.10
2022-12-27T16:04:41.784Z,84.00
2022-12-27T16:06:03.713Z,83.30
2022-12-27T16:07:39.634Z,83.80
2022-12-27T16:09:18.973Z,83.40
2022-12-27T16:10:50.141Z,83.10
2022-12-27T16:12:11.963Z,83.20
2022-12-27T16:13:39.456Z,83.20
2022-12-27T16:15:39.539Z,83.40
2022-12-27T16:17:11.456Z,83.10
2022-12-27T16:19:06.529Z,83.60
2022-12-27T16:20:27.026Z,83.70
2022-12-27T16:21:47.534Z,83.70
2022-12-27T16:23:11.254Z,83.60
2022-12-27T16:24:31.900Z,83.50
2022-12-27T16:26:00.916Z,83.90
2022-12-27T16:27:28.447Z,83.80
2022-12-27T16:28:54.061Z,83.40
2022-12-27T16:30:36.593Z,83.00
2022-12-27T16:33:35.607Z,83.60
2022-12-27T16:35:09.038Z,83.90
2022-12-27T16:36:30.491Z,83.60
2022-12-27T16:37:53.245Z,83.90
2022-12-27T16:39:24.840Z,83.90
2022-12-27T16:40:48.899Z,84.10
2022-12-27T16:42:09.539Z,84.00
2022-12-27T16:43:52.977Z,83.70
2022-12-27T16:45:30.629Z,83.80
2022-12-27T16:47:01.311Z,83.50
2022-12-27T16:48:28.045Z,83.50
2022-12-27T16:50:03.605Z,83.90
2022-12-27T16:51:31.170Z,83.90
2022-12-27T16:53:01.330Z,83.80
2022-12-27T16:54:28.422Z,84.00
2022-12-27T16:56:09.630Z,83.50
2022-12-27T16:57:41.229Z,83.30
2022-12-27T16:59:01.720Z,83.60
2022-12-27T17:00:37.865Z,83.30
2022-12-27T17:01:59.103Z,82.90
2022-12-27T17:03:44.770Z,83.40
2022-12-27T17:05:35.301Z,83.50
2022-12-27T17:06:56.857Z,83.20
2022-12-27T17:08:19.077Z,83.70
2022-12-27T17:09:43.877Z,83.60
2022-12-27T17:11:23.985Z,82.80
2022-12-27T17:12:49.340Z,82.90
2022-12-27T17:14:12.220Z,82.40
2022-12-27T17:15:33.125Z,82.70
2022-12-27T17:16:56.515Z,82.40
2022-12-27T17:18:25.576Z,82.70
2022-12-27T17:19:52.422Z,82.50
2022-12-27T17:21:15.774Z,82.70
2022-12-27T17:22:38.750Z,82.60
2022-12-27T17:24:01.279Z,82.90
2022-12-27T17:25:34.504Z,82.40
2022-12-27T17:27:04.823Z,82.10
2022-12-27T17:28:28.216Z,82.60
2022-12-27T17:30:07.567Z,82.40
2022-12-27T17:31:32.415Z,82.30
2022-12-27T17:33:16.013Z,82.20
2022-12-27T17:34:46.062Z,82.50
2022-12-27T17:36:21.375Z,82.40
2022-12-27T17:37:50.192Z,82.60
2022-12-27T17:39:24.776Z,82.70
2022-12-27T17:40:49.926Z,82.70
2022-12-27T17:42:17.149Z,82.40
2022-12-27T17:43:46.794Z,81.90
2022-12-27T17:45:16.909Z,81.90
2022-12-27T17:46:43.269Z,81.80
2022-12-27T17:48:09.506Z,81.80
2022-12-27T17:49:31.348Z,81.30
2022-12-27T17:50:52.597Z,81.70
2022-12-27T17:52:17.958Z,82.00
2022-12-27T17:53:45.424Z,82.00
2022-12-27T17:55:16.207Z,82.00
2022-12-27T17:56:43.392Z,81.70
2022-12-27T17:58:06.982Z,81.70
2022-12-27T17:59:29.233Z,81.20
2022-12-27T18:00:54.424Z,80.80
2022-12-27T18:02:19.286Z,81.30
2022-12-27T18:03:42.384Z,80.90
2022-12-27T18:05:05.161Z,81.00
2022-12-27T18:06:25.585Z,81.60
2022-12-27T18:08:00.211Z,81.80
2022-12-27T18:09:37.048Z,81.50
2022-12-27T18:10:58.254Z,82.20
2022-12-27T18:12:21.234Z,81.80
2022-12-27T18:13:49.764Z,81.10
2022-12-27T18:15:15.843Z,81.60
2022-12-27T18:16:39.308Z,81.50
2022-12-27T18:18:01.770Z,81.60
2022-12-27T18:19:22.449Z,81.40
2022-12-27T18:20:43.423Z,81.30
2022-12-27T18:22:04.171Z,81.20
2022-12-27T18:23:26.647Z,81.00
2022-12-27T18:24:47.261Z,80.80
2022-12-27T18:26:12.939Z,80.50
2022-12-27T18:27:34.259Z,80.50
2022-12-27T18:28:54.808Z,80.50
2022-12-27T18:30:15.518Z,80.70
2022-12-27T18:31:39.082Z,81.00
2022-12-27T18:33:00.774Z,80.80
2022-12-27T18:34:24.551Z,81.30
2022-12-27T18:35:47.161Z,81.50
2022-12-27T18:37:10.708Z,81.10
2022-12-27T18:38:35.964Z,80.90